createdAt,value
2022-08-02T00:01:00.311Z,100.00
2022-08-02T00:03:27.391Z,100.00
2022-08-02T00:05:54.505Z,100.00
2022-08-02T00:08:22.912Z,100.00
2022-08-02T00:10:50.401Z,100.00
2022-08-02T00:13:17.670Z,100.00
2022-08-02T00:15:44.749Z,100.00
2022-08-02T00:18:11.798Z,100.00
2022-08-02T00:20:39.114Z,100.00
2022-08-02T00:23:06.274Z,100.00
2022-08-02T00:25:33.368Z,100.00
2022-08-02T00:28:00.437Z,100.00
2022-08-02T00:30:27.506Z,100.00
2022-08-02T00:32:54.560Z,100.00
2022-08-02T00:35:21.615Z,100.00
2022-08-02T00:37:48.766Z,100.00
2022-08-02T00:40:15.873Z,100.00
2022-08-02T00:42:44.309Z,100.00
2022-08-02T00:45:11.587Z,100.00
2022-08-02T00:47:38.682Z,100.00
2022-08-02T00:50:06.633Z,100.00
2022-08-02T00:52:33.769Z,100.00
2022-08-02T00:55:00.817Z,100.00
2022-08-02T00:57:27.856Z,100.00
2022-08-02T00:59:54.909Z,100.00
2022-08-02T01:02:22.056Z,100.00
2022-08-02T01:04:49.121Z,100.00
2022-08-02T01:07:16.173Z,100.00
2022-08-02T01:09:46.930Z,100.00
2022-08-02T01:12:15.959Z,100.00
2022-08-02T01:14:51.429Z,100.00
2022-08-02T01:17:55.049Z,100.00
2022-08-02T01:20:53.211Z,100.00
2022-08-02T01:24:11.398Z,100.00
2022-08-02T01:27:24.017Z,100.00
2022-08-02T01:30:00.807Z,100.00
2022-08-02T01:32:45.989Z,100.00
2022-08-02T01:35:50.670Z,100.00
2022-08-02T01:38:34.768Z,100.00
2022-08-02T01:41:09.813Z,100.00
2022-08-02T01:43:43.830Z,100.00
2022-08-02T01:46:16.687Z,100.00
2022-08-02T01:48:48.839Z,100.00
2022-08-02T01:51:44.224Z,100.00
2022-08-02T01:54:19.368Z,100.00
2022-08-02T01:56:51.918Z,100.00
2022-08-02T01:59:25.111Z,100.00
2022-08-02T02:01:59.768Z,100.00
2022-08-02T02:04:32.156Z,100.00
2022-08-02T02:07:02.954Z,97.53
2022-08-02T02:09:47.852Z,97.06
2022-08-02T02:12:20.628Z,97.19
2022-08-02T02:14:52.052Z,100.00
2022-08-02T02:17:53.023Z,100.00
2022-08-02T02:20:22.220Z,100.00
2022-08-02T02:22:51.153Z,99.57
2022-08-02T02:25:26.857Z,99.88
2022-08-02T02:28:11.944Z,98.50
2022-08-02T02:30:48.668Z,98.75
2022-08-02T02:33:22.669Z,98.22
2022-08-02T02:35:54.214Z,97.96
2022-08-02T02:38:24.762Z,98.56
2022-08-02T02:40:54.652Z,99.72
2022-08-02T02:43:28.092Z,98.06
2022-08-02T02:45:57.828Z,97.66
2022-08-02T02:48:29.453Z,99.26
2022-08-02T02:50:58.865Z,99.09
2022-08-02T02:53:28.735Z,99.15
2022-08-02T02:56:19.729Z,99.24
2022-08-02T02:58:48.629Z,98.44
2022-08-02T03:01:56.290Z,99.17
2022-08-02T03:04:17.898Z,99.65
2022-08-02T03:06:45.141Z,99.54
2022-08-02T03:09:13.014Z,99.47
2022-08-02T03:11:42.036Z,99.73
2022-08-02T03:14:12.671Z,99.55
2022-08-02T03:16:54.701Z,99.55
2022-08-02T03:19:23.946Z,100.00
2022-08-02T03:22:00.250Z,99.47
2022-08-02T03:24:27.810Z,98.26
2022-08-02T03:26:56.438Z,97.83
2022-08-02T03:29:23.438Z,98.00
2022-08-02T03:31:52.435Z,98.81
2022-08-02T03:34:20.763Z,99.18
2022-08-02T03:36:55.532Z,100.00
2022-08-02T03:39:25.679Z,98.53
2022-08-02T03:41:56.295Z,100.00
2022-08-02T03:44:26.639Z,100.00
2022-08-02T03:46:55.350Z,100.00
2022-08-02T03:49:24.991Z,100.00
2022-08-02T03:51:54.473Z,100.00
2022-08-02T03:54:23.203Z,100.00
2022-08-02T03:57:02.691Z,100.00
2022-08-02T03:59:32.589Z,100.00
2022-08-02T04:01:59.749Z,100.00
2022-08-02T04:04:30.540Z,100.00
2022-08-02T04:06:57.520Z,100.00
2022-08-02T04:09:24.921Z,100.00
2022-08-02T04:11:51.933Z,100.00
2022-08-02T04:14:19.768Z,100.00
2022-08-02T04:17:04.754Z,100.00
2022-08-02T04:19:53.818Z,100.00
2022-08-02T04:22:39.538Z,100.00
2022-08-02T04:25:17.202Z,100.00
2022-08-02T04:28:15.299Z,100.00
2022-08-02T04:30:37.583Z,100.00
2022-08-02T04:33:07.176Z,100.00
2022-08-02T04:35:34.616Z,100.00
2022-08-02T04:38:05.758Z,100.00
2022-08-02T04:40:38.195Z,100.00
2022-08-02T04:43:05.527Z,100.00
2022-08-02T04:45:34.113Z,100.00
2022-08-02T04:48:05.115Z,100.00
2022-08-02T04:50:33.544Z,100.00
2022-08-02T04:53:00.747Z,100.00
2022-08-02T04:55:30.519Z,100.00
2022-08-02T04:57:59.702Z,100.00
2022-08-02T05:00:29.889Z,100.00
2022-08-02T05:02:58.949Z,100.00
2022-08-02T05:05:27.449Z,100.00
2022-08-02T05:07:55.856Z,100.00
2022-08-02T05:10:24.112Z,100.00
2022-08-02T05:12:51.221Z,100.00
2022-08-02T05:15:18.792Z,99.90
2022-08-02T05:17:48.999Z,99.58
2022-08-02T05:20:20.654Z,99.69
2022-08-02T05:22:48.062Z,100.00
2022-08-02T05:25:15.964Z,97.62
2022-08-02T05:27:42.957Z,96.54
2022-08-02T05:30:11.736Z,93.69
2022-08-02T05:32:52.749Z,87.23
2022-08-02T05:35:25.023Z,79.46
2022-08-02T05:37:52.638Z,79.41
2022-08-02T05:40:25.534Z,74.97
2022-08-02T05:42:54.968Z,72.81
2022-08-02T05:45:23.107Z,71.53
2022-08-02T05:47:50.329Z,67.04
2022-08-02T05:50:17.936Z,68.57
2022-08-02T05:53:04.675Z,69.74
2022-08-02T05:55:57.303Z,71.29
2022-08-02T05:58:53.178Z,71.32
2022-08-02T06:01:36.852Z,68.37
2022-08-02T06:04:11.473Z,67.74
2022-08-02T06:06:45.103Z,69.55
2022-08-02T06:09:23.048Z,70.63
2022-08-02T06:12:01.502Z,70.92
2022-08-02T06:14:34.072Z,71.14
2022-08-02T06:17:09.294Z,73.05
2022-08-02T06:19:51.527Z,72.10
2022-08-02T06:22:33.028Z,71.15
2022-08-02T06:25:06.322Z,67.56
2022-08-02T06:27:35.868Z,65.94
2022-08-02T06:30:09.639Z,65.57
2022-08-02T06:32:37.568Z,67.66
2022-08-02T06:35:05.823Z,65.46
2022-08-02T06:37:44.313Z,64.40
2022-08-02T06:40:40.699Z,62.88
2022-08-02T06:43:21.288Z,63.12
2022-08-02T06:45:48.370Z,60.35
2022-08-02T06:48:15.914Z,60.47
2022-08-02T06:50:44.337Z,62.30
2022-08-02T06:53:12.919Z,64.46
2022-08-02T06:55:43.258Z,65.20
2022-08-02T06:58:11.811Z,64.41
2022-08-02T07:00:39.133Z,64.39
2022-08-02T07:03:06.643Z,65.98
2022-08-02T07:05:34.768Z,64.05
2022-08-02T07:08:03.035Z,63.57
2022-08-02T07:10:30.264Z,64.52
2022-08-02T07:12:59.925Z,61.77
2022-08-02T07:15:27.316Z,62.88
2022-08-02T07:17:54.522Z,62.26
2022-08-02T07:20:21.621Z,61.72
2022-08-02T07:22:48.955Z,64.85
2022-08-02T07:25:16.495Z,64.96
2022-08-02T07:27:43.603Z,64.96
2022-08-02T07:30:11.590Z,61.21
2022-08-02T07:32:39.039Z,60.70
2022-08-02T07:35:07.756Z,63.11
2022-08-02T07:37:54.617Z,64.37
2022-08-02T07:40:25.136Z,62.84
2022-08-02T07:43:02.974Z,61.96
2022-08-02T07:45:35.786Z,58.09
2022-08-02T07:48:04.163Z,57.95
2022-08-02T07:50:31.283Z,59.92
2022-08-02T07:52:59.232Z,61.61
2022-08-02T07:55:39.651Z,56.52
2022-08-02T07:58:12.540Z,59.66
2022-08-02T08:00:40.967Z,55.26
2022-08-02T08:03:08.049Z,55.95
2022-08-02T08:05:35.095Z,55.33
2022-08-02T08:08:02.260Z,56.95
2022-08-02T08:10:29.253Z,53.99
2022-08-02T08:12:56.266Z,54.89
2022-08-02T08:15:23.321Z,52.95
2022-08-02T08:17:50.353Z,52.25
2022-08-02T08:20:17.535Z,53.53
2022-08-02T08:22:44.551Z,55.57
2022-08-02T08:25:11.547Z,56.27
2022-08-02T08:27:38.529Z,56.54
2022-08-02T08:30:06.394Z,57.88
2022-08-02T08:32:33.765Z,57.00
2022-08-02T08:35:00.791Z,54.33
2022-08-02T08:37:27.799Z,54.39
2022-08-02T08:39:58.207Z,54.23
2022-08-02T08:42:31.890Z,51.20
2022-08-02T08:45:00.636Z,52.17
2022-08-02T08:47:40.835Z,48.24
2022-08-02T08:50:24.815Z,49.95
2022-08-02T08:53:07.884Z,50.42
2022-08-02T08:55:37.729Z,48.62
2022-08-02T08:58:06.510Z,50.07
2022-08-02T09:00:37.024Z,50.13
2022-08-02T09:03:08.618Z,51.88
2022-08-02T09:05:39.202Z,47.82
2022-08-02T09:08:07.912Z,48.36
2022-08-02T09:10:48.474Z,50.12
2022-08-02T09:13:38.085Z,48.21
2022-08-02T09:16:12.690Z,47.19
2022-08-02T09:18:47.448Z,48.71
2022-08-02T09:21:17.630Z,49.24
2022-08-02T09:23:52.719Z,49.87
2022-08-02T09:26:23.930Z,48.79
2022-08-02T09:29:01.503Z,47.15
2022-08-02T09:31:28.822Z,47.58
2022-08-02T09:33:59.775Z,46.56
2022-08-02T09:36:47.831Z,47.22
2022-08-02T09:39:17.553Z,49.83
2022-08-02T09:41:45.767Z,49.34
2022-08-02T09:44:16.674Z,49.83
2022-08-02T09:46:46.687Z,52.66
2022-08-02T09:49:18.308Z,53.61
2022-08-02T09:51:57.025Z,50.64
2022-08-02T09:54:28.847Z,47.98
2022-08-02T09:57:01.989Z,47.67
2022-08-02T09:59:30.914Z,48.01
2022-08-02T10:02:17.493Z,47.67
2022-08-02T10:04:52.086Z,49.12
2022-08-02T10:07:23.361Z,49.50
2022-08-02T10:09:52.554Z,49.65
2022-08-02T10:12:23.438Z,49.55
2022-08-02T10:14:52.308Z,49.30
2022-08-02T10:17:21.679Z,50.95
2022-08-02T10:20:00.561Z,51.72
2022-08-02T10:22:34.760Z,50.09
2022-08-02T10:25:08.481Z,51.25
2022-08-02T10:28:02.922Z,48.15
2022-08-02T10:30:30.472Z,46.69
2022-08-02T10:33:03.868Z,47.03
2022-08-02T10:35:39.354Z,48.01
2022-08-02T10:38:13.099Z,49.37
2022-08-02T10:40:56.100Z,45.40
2022-08-02T10:43:31.951Z,48.86
2022-08-02T10:46:32.488Z,46.45
2022-08-02T10:49:38.135Z,45.73
2022-08-02T10:52:01.580Z,45.77
2022-08-02T10:54:38.957Z,46.35
2022-08-02T10:57:23.020Z,44.24
2022-08-02T10:59:57.819Z,44.34
2022-08-02T11:02:53.073Z,45.71
2022-08-02T11:05:43.249Z,47.16
2022-08-02T11:08:22.960Z,47.36
2022-08-02T11:10:50.100Z,48.38
2022-08-02T11:13:20.014Z,50.63
2022-08-02T11:16:11.186Z,50.49
2022-08-02T11:18:44.874Z,46.20
2022-08-02T11:21:34.371Z,46.06
2022-08-02T11:24:33.405Z,46.52
2022-08-02T11:27:08.703Z,45.58
2022-08-02T11:29:45.029Z,45.75
2022-08-02T11:32:31.051Z,46.18
2022-08-02T11:35:00.593Z,46.18
2022-08-02T11:37:45.504Z,45.30
2022-08-02T11:40:19.624Z,46.20
2022-08-02T11:42:50.735Z,44.82
2022-08-02T11:45:28.964Z,45.18
2022-08-02T11:47:57.320Z,46.56
2022-08-02T11:50:29.669Z,45.89
2022-08-02T11:52:58.030Z,45.92
2022-08-02T11:55:32.608Z,43.94
2022-08-02T11:58:07.962Z,42.95
2022-08-02T12:00:36.186Z,41.78
2022-08-02T12:03:03.451Z,42.07
2022-08-02T12:06:05.125Z,42.59
2022-08-02T12:08:22.448Z,43.86
2022-08-02T12:10:52.962Z,44.27
2022-08-02T12:13:20.374Z,43.62
2022-08-02T12:15:48.024Z,44.13
2022-08-02T12:18:39.291Z,41.96
2022-08-02T12:21:26.332Z,41.89
2022-08-02T12:24:00.584Z,43.02
2022-08-02T12:26:30.583Z,41.36
2022-08-02T12:28:59.522Z,40.07
2022-08-02T12:31:56.365Z,40.26
2022-08-02T12:34:29.971Z,41.50
2022-08-02T12:37:11.141Z,41.68
2022-08-02T12:39:50.025Z,40.13
2022-08-02T12:42:17.720Z,41.32
2022-08-02T12:44:58.928Z,41.69
2022-08-02T12:47:31.287Z,43.64
2022-08-02T12:50:37.263Z,43.47
2022-08-02T12:53:17.707Z,41.50
2022-08-02T12:55:59.830Z,40.83
2022-08-02T12:58:31.705Z,39.52
2022-08-02T13:01:02.267Z,37.71
2022-08-02T13:04:11.855Z,38.12
2022-08-02T13:06:42.024Z,37.38
2022-08-02T13:09:17.615Z,37.19
2022-08-02T13:11:46.369Z,37.10
2022-08-02T13:14:15.568Z,38.03
2022-08-02T13:16:47.009Z,37.59
2022-08-02T13:19:15.819Z,38.81
2022-08-02T13:22:01.049Z,39.25
2022-08-02T13:24:41.134Z,36.22
2022-08-02T13:27:16.023Z,37.51
2022-08-02T13:29:43.439Z,40.15
2022-08-02T13:32:10.850Z,32.27
2022-08-02T13:34:38.150Z,34.45
2022-08-02T13:37:05.263Z,36.93
2022-08-02T13:39:32.463Z,35.37
2022-08-02T13:41:59.560Z,32.63
2022-08-02T13:44:26.663Z,34.43
2022-08-02T13:46:53.702Z,33.24
2022-08-02T13:49:21.934Z,34.13
2022-08-02T13:52:08.662Z,34.44
2022-08-02T13:54:36.443Z,35.28
2022-08-02T13:57:04.097Z,34.15
2022-08-02T13:59:57.262Z,34.41
2022-08-02T14:02:18.396Z,33.95
2022-08-02T14:04:46.026Z,32.68
2022-08-02T14:07:13.098Z,33.02
2022-08-02T14:09:40.415Z,32.17
2022-08-02T14:12:15.636Z,31.97
2022-08-02T14:14:42.892Z,30.83
2022-08-02T14:17:11.273Z,32.48
2022-08-02T14:19:38.569Z,31.96
2022-08-02T14:22:21.179Z,32.09
2022-08-02T14:24:48.609Z,33.25
2022-08-02T14:27:16.047Z,31.60
2022-08-02T14:29:43.258Z,31.56
2022-08-02T14:32:10.694Z,31.78
2022-08-02T14:34:37.988Z,31.88
2022-08-02T14:37:05.188Z,32.97
2022-08-02T14:39:43.240Z,32.84
2022-08-02T14:42:21.115Z,32.63
2022-08-02T14:44:48.160Z,31.76
2022-08-02T14:47:15.593Z,32.55
2022-08-02T14:49:45.954Z,33.29
2022-08-02T14:52:15.942Z,33.17
2022-08-02T14:54:43.303Z,32.87
2022-08-02T14:57:11.671Z,30.66
2022-08-02T14:59:42.290Z,31.21
2022-08-02T15:02:10.958Z,30.51
2022-08-02T15:04:43.314Z,30.69
2022-08-02T15:07:12.159Z,31.71
2022-08-02T15:09:39.558Z,31.18
2022-08-02T15:12:13.920Z,31.20
2022-08-02T15:14:42.605Z,31.35
2022-08-02T15:17:11.048Z,32.84
2022-08-02T15:20:00.127Z,31.51
2022-08-02T15:22:29.055Z,32.73
2022-08-02T15:24:56.206Z,32.34
2022-08-02T15:27:23.744Z,32.43
2022-08-02T15:29:50.776Z,32.50
2022-08-02T15:32:19.760Z,33.25
2022-08-02T15:34:48.026Z,34.04
2022-08-02T15:37:15.335Z,33.85
2022-08-02T15:39:42.372Z,33.61
2022-08-02T15:42:14.901Z,34.98
2022-08-02T15:44:42.097Z,35.78
2022-08-02T15:47:09.444Z,35.69
2022-08-02T15:49:41.079Z,35.00
2022-08-02T15:52:08.847Z,34.47
2022-08-02T15:54:35.987Z,34.71
2022-08-02T15:57:03.194Z,34.27
2022-08-02T15:59:30.311Z,34.67
2022-08-02T16:01:57.447Z,34.50
2022-08-02T16:04:24.615Z,34.99
2022-08-02T16:06:51.596Z,33.13
2022-08-02T16:09:18.749Z,33.60
2022-08-02T16:11:45.757Z,33.22
2022-08-02T16:14:12.790Z,36.09
2022-08-02T16:16:40.480Z,35.58
2022-08-02T16:19:46.586Z,34.00
2022-08-02T16:21:56.364Z,31.70
2022-08-02T16:24:23.866Z,33.62
2022-08-02T16:26:50.776Z,32.89
2022-08-02T16:29:19.791Z,34.76
2022-08-02T16:31:48.216Z,33.41
2022-08-02T16:34:16.834Z,33.72
2022-08-02T16:36:45.129Z,34.67
2022-08-02T16:39:12.913Z,33.34
2022-08-02T16:41:52.228Z,34.27
2022-08-02T16:44:29.412Z,35.37
2022-08-02T16:47:00.571Z,33.18
2022-08-02T16:50:06.961Z,33.86
2022-08-02T16:52:27.883Z,36.62
2022-08-02T16:54:55.628Z,34.74
2022-08-02T16:57:22.742Z,35.64
2022-08-02T16:59:50.863Z,36.22
2022-08-02T17:02:28.577Z,38.02
2022-08-02T17:04:56.750Z,35.88
2022-08-02T17:08:07.069Z,36.23
2022-08-02T17:10:12.928Z,36.18
2022-08-02T17:12:40.909Z,36.94
2022-08-02T17:16:01.054Z,36.99
2022-08-02T17:17:57.866Z,36.32
2022-08-02T17:20:25.193Z,36.88
2022-08-02T17:22:53.458Z,37.57
2022-08-02T17:25:24.795Z,37.69
2022-08-02T17:27:55.998Z,38.33
2022-08-02T17:30:26.975Z,38.53
2022-08-02T17:32:57.674Z,39.27
2022-08-02T17:35:43.459Z,39.41
2022-08-02T17:38:18.127Z,40.27
2022-08-02T17:40:56.021Z,39.32
2022-08-02T17:43:29.158Z,41.97
2022-08-02T17:46:00.471Z,40.31
2022-08-02T17:48:55.049Z,40.95
2022-08-02T17:52:16.003Z,42.34
2022-08-02T17:54:12.747Z,42.95
2022-08-02T17:56:42.348Z,43.53
2022-08-02T17:59:22.310Z,46.14
2022-08-02T18:02:03.577Z,46.52
2022-08-02T18:04:32.284Z,48.17
2022-08-02T18:07:04.607Z,49.73
2022-08-02T18:09:37.781Z,50.77
2022-08-02T18:12:15.870Z,50.30
2022-08-02T18:14:49.272Z,53.46
2022-08-02T18:17:17.158Z,53.14
2022-08-02T18:19:57.342Z,53.16
2022-08-02T18:22:28.310Z,53.93
2022-08-02T18:24:55.419Z,54.59
2022-08-02T18:27:22.696Z,54.58
2022-08-02T18:30:00.005Z,54.07
2022-08-02T18:33:55.167Z,54.99
2022-08-02T18:35:19.537Z,54.92
2022-08-02T18:37:52.180Z,56.97
2022-08-02T18:40:24.789Z,56.85
2022-08-02T18:42:53.188Z,57.57
2022-08-02T18:45:21.629Z,58.73
2022-08-02T18:47:51.058Z,59.38
2022-08-02T18:50:20.095Z,59.97
2022-08-02T18:52:50.376Z,60.78
2022-08-02T18:56:00.089Z,60.02
2022-08-02T18:58:17.888Z,61.68
2022-08-02T19:00:51.525Z,62.86
2022-08-02T19:03:20.302Z,63.60
2022-08-02T19:05:52.242Z,63.55
2022-08-02T19:08:25.654Z,65.99
2022-08-02T19:10:56.294Z,65.64
2022-08-02T19:13:24.460Z,67.10
2022-08-02T19:15:53.641Z,66.52
2022-08-02T19:18:26.825Z,66.79
2022-08-02T19:20:58.217Z,67.54
2022-08-02T19:23:29.669Z,69.45
2022-08-02T19:25:57.232Z,69.97
2022-08-02T19:28:26.049Z,68.23
2022-08-02T19:30:56.781Z,68.58
2022-08-02T19:34:05.687Z,69.28
2022-08-02T19:36:12.452Z,69.99
2022-08-02T19:38:44.318Z,69.03
2022-08-02T19:41:13.728Z,69.49
2022-08-02T19:44:26.683Z,70.33
2022-08-02T19:46:27.859Z,71.14
2022-08-02T19:48:55.122Z,70.58
2022-08-02T19:51:54.515Z,70.88
2022-08-02T19:54:10.516Z,72.29
2022-08-02T19:56:38.149Z,72.46
2022-08-02T19:59:13.220Z,72.32
2022-08-02T20:01:46.384Z,73.76
2022-08-02T20:04:23.141Z,73.85
2022-08-02T20:06:51.299Z,73.45
2022-08-02T20:09:22.917Z,74.06
2022-08-02T20:11:54.864Z,73.64
2022-08-02T20:14:27.369Z,75.05
2022-08-02T20:16:58.527Z,74.98
2022-08-02T20:19:29.183Z,74.45
2022-08-02T20:21:59.642Z,75.04
2022-08-02T20:24:27.636Z,75.76
2022-08-02T20:26:59.250Z,76.48
2022-08-02T20:29:42.925Z,75.93
2022-08-02T20:32:12.961Z,75.38
2022-08-02T20:34:40.202Z,76.80
2022-08-02T20:37:59.224Z,75.75
2022-08-02T20:39:54.307Z,77.16
2022-08-02T20:42:24.583Z,76.85
2022-08-02T20:44:55.731Z,75.89
2022-08-02T20:47:27.557Z,77.09
2022-08-02T20:50:15.268Z,75.79
2022-08-02T20:52:44.165Z,76.36
2022-08-02T20:55:17.235Z,75.18
2022-08-02T20:58:00.111Z,74.81
2022-08-02T21:00:28.708Z,76.24
2022-08-02T21:02:55.954Z,76.69
2022-08-02T21:05:43.853Z,74.38
2022-08-02T21:08:14.700Z,75.19
2022-08-02T21:10:52.108Z,76.32
2022-08-02T21:13:23.410Z,76.20
2022-08-02T21:15:54.115Z,76.51
2022-08-02T21:18:27.848Z,76.46
2022-08-02T21:21:09.133Z,77.33
2022-08-02T21:23:38.013Z,77.31
2022-08-02T21:26:09.047Z,77.17
2022-08-02T21:28:44.084Z,76.98
2022-08-02T21:31:15.777Z,76.05
2022-08-02T21:33:58.019Z,76.25
2022-08-02T21:36:33.976Z,75.09
2022-08-02T21:39:08.917Z,75.99
2022-08-02T21:41:46.469Z,76.36
2022-08-02T21:44:20.717Z,75.77
2022-08-02T21:46:52.903Z,76.66
2022-08-02T21:49:40.641Z,76.80
2022-08-02T21:52:13.197Z,77.48
2022-08-02T21:54:41.055Z,77.53
2022-08-02T21:57:16.347Z,78.56
2022-08-02T21:59:52.800Z,78.98
2022-08-02T22:02:30.506Z,79.62
2022-08-02T22:04:58.493Z,79.80
2022-08-02T22:07:25.661Z,79.38
2022-08-02T22:09:54.000Z,79.75
2022-08-02T22:12:26.459Z,80.02
2022-08-02T22:14:56.308Z,80.26
2022-08-02T22:17:51.036Z,79.63
2022-08-02T22:20:20.217Z,79.96
2022-08-02T22:22:52.101Z,79.66
2022-08-02T22:25:31.038Z,80.96
2022-08-02T22:28:37.312Z,80.98
2022-08-02T22:30:59.906Z,80.61
2022-08-02T22:33:47.068Z,80.37
2022-08-02T22:36:30.672Z,80.79
2022-08-02T22:38:58.924Z,81.14
2022-08-02T22:42:01.071Z,81.29
2022-08-02T22:44:14.774Z,80.63
2022-08-02T22:46:43.851Z,80.45
2022-08-02T22:49:36.837Z,81.32
2022-08-02T22:51:58.425Z,82.46
2022-08-02T22:54:25.433Z,82.67
2022-08-02T22:56:52.576Z,83.03
2022-08-02T22:59:20.144Z,82.03
2022-08-02T23:02:05.665Z,83.01
2022-08-02T23:04:32.854Z,83.00
2022-08-02T23:06:59.990Z,82.93
2022-08-02T23:09:27.293Z,83.78
2022-08-02T23:11:54.858Z,83.05
2022-08-02T23:14:22.124Z,83.17
2022-08-02T23:17:09.008Z,83.37
2022-08-02T23:19:51.257Z,83.26
2022-08-02T23:22:30.151Z,84.22
2022-08-02T23:25:06.445Z,83.67
2022-08-02T23:27:34.702Z,83.76
2022-08-02T23:30:02.479Z,85.17
2022-08-02T23:32:30.433Z,86.01
2022-08-02T23:34:59.040Z,85.58
2022-08-02T23:37:27.368Z,85.75
2022-08-02T23:39:54.400Z,85.57
2022-08-02T23:42:23.834Z,85.92
2022-08-02T23:44:52.021Z,87.31
2022-08-02T23:47:19.888Z,87.26
2022-08-02T23:49:47.488Z,87.31
2022-08-02T23:52:14.773Z,87.30
2022-08-02T23:54:42.058Z,87.51
2022-08-02T23:57:20.634Z,86.55
2022-08-02T23:59:51.394Z,87.24
